sensor_id;sensor_type;location;lat;lon;timestamp;P1;durP1;ratioP1;P2;durP2;ratioP2
44704;SDS011;30431;48.520;9.046;2023-02-15T00:00:25;37.17;;;20.13;;
44704;SDS011;30431;48.520;9.046;2023-02-15T00:02:55;32.13;;;19.02;;
44704;SDS011;30431;48.520;9.046;2023-02-15T00:05:23;29.08;;;18.13;;
44704;SDS011;30431;48.520;9.046;2023-02-15T00:07:55;28.48;;;17.15;;
44704;SDS011;30431;48.520;9.046;2023-02-15T00:10:23;28.48;;;17.70;;
44704;SDS011;30431;48.520;9.046;2023-02-15T00:12:50;27.35;;;17.63;;
44704;SDS011;30431;48.520;9.046;2023-02-15T00:15:17;29.42;;;17.15;;
44704;SDS011;30431;48.520;9.046;2023-02-15T00:17:44;26.83;;;16.00;;
44704;SDS011;30431;48.520;9.046;2023-02-15T00:22:38;26.25;;;17.13;;
44704;SDS011;30431;48.520;9.046;2023-02-15T00:25:07;28.60;;;18.13;;
44704;SDS011;30431;48.520;9.046;2023-02-15T00:27:34;28.35;;;17.55;;
44704;SDS011;30431;48.520;9.046;2023-02-15T00:30:01;29.98;;;17.83;;
44704;SDS011;30431;48.520;9.046;2023-02-15T00:32:28;27.45;;;17.27;;
44704;SDS011;30431;48.520;9.046;2023-02-15T00:34:56;30.38;;;18.38;;
44704;SDS011;30431;48.520;9.046;2023-02-15T00:37:23;28.60;;;17.88;;
44704;SDS011;30431;48.520;9.046;2023-02-15T00:39:50;31.25;;;19.60;;
44704;SDS011;30431;48.520;9.046;2023-02-15T00:42:19;35.30;;;19.60;;
44704;SDS011;30431;48.520;9.046;2023-02-15T00:44:46;30.17;;;18.52;;
44704;SDS011;30431;48.520;9.046;2023-02-15T00:47:16;34.55;;;19.52;;
44704;SDS011;30431;48.520;9.046;2023-02-15T00:49:43;31.45;;;19.45;;
44704;SDS011;30431;48.520;9.046;2023-02-15T00:52:10;34.00;;;20.50;;
44704;SDS011;30431;48.520;9.046;2023-02-15T00:54:36;31.25;;;20.63;;
44704;SDS011;30431;48.520;9.046;2023-02-15T00:57:05;34.38;;;20.77;;
44704;SDS011;30431;48.520;9.046;2023-02-15T00:59:31;34.25;;;20.05;;
44704;SDS011;30431;48.520;9.046;2023-02-15T01:01:59;37.47;;;21.40;;
44704;SDS011;30431;48.520;9.046;2023-02-15T01:04:28;31.40;;;19.77;;
44704;SDS011;30431;48.520;9.046;2023-02-15T01:06:56;30.05;;;19.65;;
44704;SDS011;30431;48.520;9.046;2023-02-15T01:09:23;38.10;;;20.00;;
44704;SDS011;30431;48.520;9.046;2023-02-15T01:11:50;35.50;;;19.85;;
44704;SDS011;30431;48.520;9.046;2023-02-15T01:14:17;32.08;;;19.90;;
44704;SDS011;30431;48.520;9.046;2023-02-15T01:16:45;34.13;;;20.33;;
44704;SDS011;30431;48.520;9.046;2023-02-15T01:21:39;35.47;;;20.65;;
44704;SDS011;30431;48.520;9.046;2023-02-15T01:24:14;35.60;;;20.48;;
44704;SDS011;30431;48.520;9.046;2023-02-15T01:26:42;34.75;;;21.63;;
44704;SDS011;30431;48.520;9.046;2023-02-15T01:29:11;29.25;;;19.73;;
44704;SDS011;30431;48.520;9.046;2023-02-15T01:31:38;32.05;;;19.00;;
44704;SDS011;30431;48.520;9.046;2023-02-15T01:34:08;36.70;;;20.50;;
44704;SDS011;30431;48.520;9.046;2023-02-15T01:36:37;31.90;;;20.42;;
44704;SDS011;30431;48.520;9.046;2023-02-15T01:39:04;33.20;;;20.25;;
44704;SDS011;30431;48.520;9.046;2023-02-15T01:41:34;31.92;;;19.08;;
44704;SDS011;30431;48.520;9.046;2023-02-15T01:44:01;98.75;;;22.10;;
44704;SDS011;30431;48.520;9.046;2023-02-15T01:46:36;36.50;;;20.13;;
44704;SDS011;30431;48.520;9.046;2023-02-15T01:51:45;29.63;;;19.02;;
44704;SDS011;30431;48.520;9.046;2023-02-15T01:54:20;30.27;;;19.30;;
44704;SDS011;30431;48.520;9.046;2023-02-15T01:56:51;31.73;;;18.20;;
44704;SDS011;30431;48.520;9.046;2023-02-15T01:59:21;32.45;;;18.98;;
44704;SDS011;30431;48.520;9.046;2023-02-15T02:01:53;33.22;;;18.65;;
44704;SDS011;30431;48.520;9.046;2023-02-15T02:04:35;34.60;;;19.95;;
44704;SDS011;30431;48.520;9.046;2023-02-15T02:07:14;40.08;;;21.02;;
44704;SDS011;30431;48.520;9.046;2023-02-15T02:09:44;34.42;;;20.23;;
44704;SDS011;30431;48.520;9.046;2023-02-15T02:12:11;31.67;;;18.63;;
44704;SDS011;30431;48.520;9.046;2023-02-15T02:14:39;32.33;;;19.52;;
44704;SDS011;30431;48.520;9.046;2023-02-15T02:17:16;30.45;;;19.70;;
44704;SDS011;30431;48.520;9.046;2023-02-15T02:45:01;31.45;;;19.30;;
44704;SDS011;30431;48.520;9.046;2023-02-15T02:47:37;33.97;;;20.20;;
44704;SDS011;30431;48.520;9.046;2023-02-15T02:50:14;31.55;;;20.33;;
44704;SDS011;30431;48.520;9.046;2023-02-15T02:52:49;35.05;;;20.95;;
44704;SDS011;30431;48.520;9.046;2023-02-15T03:00:21;33.35;;;22.48;;
44704;SDS011;30431;48.520;9.046;2023-02-15T03:05:58;35.10;;;20.38;;
44704;SDS011;30431;48.520;9.046;2023-02-15T03:08:33;35.78;;;19.90;;
44704;SDS011;30431;48.520;9.046;2023-02-15T03:11:04;28.00;;;19.00;;
44704;SDS011;30431;48.520;9.046;2023-02-15T03:13:32;29.25;;;18.92;;
44704;SDS011;30431;48.520;9.046;2023-02-15T03:16:04;29.73;;;19.33;;
44704;SDS011;30431;48.520;9.046;2023-02-15T03:18:53;25.88;;;17.95;;
44704;SDS011;30431;48.520;9.046;2023-02-15T03:21:34;27.85;;;18.17;;
44704;SDS011;30431;48.520;9.046;2023-02-15T03:24:53;29.13;;;17.45;;
44704;SDS011;30431;48.520;9.046;2023-02-15T03:27:30;33.70;;;20.48;;
44704;SDS011;30431;48.520;9.046;2023-02-15T03:30:02;34.15;;;19.52;;
44704;SDS011;30431;48.520;9.046;2023-02-15T03:32:32;30.38;;;18.40;;
44704;SDS011;30431;48.520;9.046;2023-02-15T03:35:01;33.25;;;20.27;;
44704;SDS011;30431;48.520;9.046;2023-02-15T03:37:40;33.53;;;21.02;;
44704;SDS011;30431;48.520;9.046;2023-02-15T03:46:24;32.13;;;19.58;;
44704;SDS011;30431;48.520;9.046;2023-02-15T03:49:00;32.42;;;20.20;;
44704;SDS011;30431;48.520;9.046;2023-02-15T03:51:38;34.42;;;20.65;;
44704;SDS011;30431;48.520;9.046;2023-02-15T03:54:10;35.33;;;20.23;;
44704;SDS011;30431;48.520;9.046;2023-02-15T03:57:03;30.10;;;19.17;;
44704;SDS011;30431;48.520;9.046;2023-02-15T04:02:40;33.63;;;19.30;;
44704;SDS011;30431;48.520;9.046;2023-02-15T04:08:09;42.42;;;23.08;;
44704;SDS011;30431;48.520;9.046;2023-02-15T04:11:15;34.72;;;21.85;;
44704;SDS011;30431;48.520;9.046;2023-02-15T04:13:42;43.08;;;23.63;;
44704;SDS011;30431;48.520;9.046;2023-02-15T04:16:12;45.05;;;24.08;;
44704;SDS011;30431;48.520;9.046;2023-02-15T04:18:40;41.22;;;23.42;;
44704;SDS011;30431;48.520;9.046;2023-02-15T04:21:29;45.10;;;23.60;;
44704;SDS011;30431;48.520;9.046;2023-02-15T04:27:03;41.65;;;21.80;;
44704;SDS011;30431;48.520;9.046;2023-02-15T04:29:32;42.33;;;22.13;;
44704;SDS011;30431;48.520;9.046;2023-02-15T04:31:59;38.20;;;22.38;;
44704;SDS011;30431;48.520;9.046;2023-02-15T04:34:27;41.63;;;23.35;;
44704;SDS011;30431;48.520;9.046;2023-02-15T04:36:55;38.15;;;24.27;;
44704;SDS011;30431;48.520;9.046;2023-02-15T04:39:21;42.65;;;22.90;;
44704;SDS011;30431;48.520;9.046;2023-02-15T04:41:49;37.83;;;21.58;;
44704;SDS011;30431;48.520;9.046;2023-02-15T04:51:39;34.78;;;20.20;;
44704;SDS011;30431;48.520;9.046;2023-02-15T04:54:06;39.03;;;20.98;;
44704;SDS011;30431;48.520;9.046;2023-02-15T04:56:35;36.15;;;20.60;;
44704;SDS011;30431;48.520;9.046;2023-02-15T04:59:04;37.08;;;21.95;;
44704;SDS011;30431;48.520;9.046;2023-02-15T05:01:33;42.53;;;23.05;;
44704;SDS011;30431;48.520;9.046;2023-02-15T05:06:28;34.95;;;20.67;;
44704;SDS011;30431;48.520;9.046;2023-02-15T05:08:55;31.52;;;19.30;;
44704;SDS011;30431;48.520;9.046;2023-02-15T05:11:25;35.20;;;20.48;;
44704;SDS011;30431;48.520;9.046;2023-02-15T05:13:52;35.90;;;20.77;;
44704;SDS011;30431;48.520;9.046;2023-02-15T05:16:19;34.83;;;20.15;;
44704;SDS011;30431;48.520;9.046;2023-02-15T05:18:46;32.35;;;19.50;;
44704;SDS011;30431;48.520;9.046;2023-02-15T05:21:13;32.70;;;19.77;;
44704;SDS011;30431;48.520;9.046;2023-02-15T05:23:56;36.53;;;20.08;;
44704;SDS011;30431;48.520;9.046;2023-02-15T05:29:11;32.05;;;19.00;;
44704;SDS011;30431;48.520;9.046;2023-02-15T05:31:38;42.92;;;20.20;;
44704;SDS011;30431;48.520;9.046;2023-02-15T05:34:05;38.38;;;21.15;;
44704;SDS011;30431;48.520;9.046;2023-02-15T05:36:34;36.72;;;20.98;;
44704;SDS011;30431;48.520;9.046;2023-02-15T05:39:01;32.95;;;19.75;;
44704;SDS011;30431;48.520;9.046;2023-02-15T05:41:33;36.67;;;20.95;;
44704;SDS011;30431;48.520;9.046;2023-02-15T05:44:01;32.92;;;19.48;;
44704;SDS011;30431;48.520;9.046;2023-02-15T05:46:27;48.53;;;22.45;;
44704;SDS011;30431;48.520;9.046;2023-02-15T05:48:55;41.83;;;21.95;;
44704;SDS011;30431;48.520;9.046;2023-02-15T05:51:24;65.28;;;21.75;;
44704;SDS011;30431;48.520;9.046;2023-02-15T05:53:51;50.47;;;21.27;;
44704;SDS011;30431;48.520;9.046;2023-02-15T05:56:21;42.60;;;19.98;;
44704;SDS011;30431;48.520;9.046;2023-02-15T05:58:48;51.33;;;23.10;;
44704;SDS011;30431;48.520;9.046;2023-02-15T06:01:19;60.85;;;24.08;;
44704;SDS011;30431;48.520;9.046;2023-02-15T06:03:49;51.42;;;27.13;;
44704;SDS011;30431;48.520;9.046;2023-02-15T06:06:18;69.93;;;28.17;;
44704;SDS011;30431;48.520;9.046;2023-02-15T06:08:47;121.40;;;33.17;;
44704;SDS011;30431;48.520;9.046;2023-02-15T06:13:42;44.65;;;22.05;;
44704;SDS011;30431;48.520;9.046;2023-02-15T06:18:42;52.67;;;26.55;;
44704;SDS011;30431;48.520;9.046;2023-02-15T06:21:09;50.10;;;24.77;;
44704;SDS011;30431;48.520;9.046;2023-02-15T06:23:36;49.38;;;24.50;;
44704;SDS011;30431;48.520;9.046;2023-02-15T06:26:04;43.90;;;22.08;;
44704;SDS011;30431;48.520;9.046;2023-02-15T06:33:25;52.88;;;25.05;;
44704;SDS011;30431;48.520;9.046;2023-02-15T06:35:51;42.13;;;22.75;;
44704;SDS011;30431;48.520;9.046;2023-02-15T06:38:18;39.80;;;22.95;;
44704;SDS011;30431;48.520;9.046;2023-02-15T06:40:48;42.22;;;22.95;;
44704;SDS011;30431;48.520;9.046;2023-02-15T06:43:15;41.92;;;22.65;;
44704;SDS011;30431;48.520;9.046;2023-02-15T06:45:43;44.38;;;23.48;;
44704;SDS011;30431;48.520;9.046;2023-02-15T06:48:10;45.80;;;22.58;;
44704;SDS011;30431;48.520;9.046;2023-02-15T06:53:06;36.70;;;20.85;;
44704;SDS011;30431;48.520;9.046;2023-02-15T07:00:27;23.45;;;16.17;;
44704;SDS011;30431;48.520;9.046;2023-02-15T07:02:57;31.73;;;18.90;;
44704;SDS011;30431;48.520;9.046;2023-02-15T07:05:26;32.35;;;19.27;;
44704;SDS011;30431;48.520;9.046;2023-02-15T07:07:58;32.58;;;19.27;;
44704;SDS011;30431;48.520;9.046;2023-02-15T07:10:25;34.05;;;20.85;;
44704;SDS011;30431;48.520;9.046;2023-02-15T07:12:55;34.88;;;20.75;;
44704;SDS011;30431;48.520;9.046;2023-02-15T07:15:22;32.33;;;19.75;;
44704;SDS011;30431;48.520;9.046;2023-02-15T07:22:44;34.70;;;19.60;;
44704;SDS011;30431;48.520;9.046;2023-02-15T07:25:12;41.35;;;22.50;;
44704;SDS011;30431;48.520;9.046;2023-02-15T07:27:42;46.88;;;26.85;;
44704;SDS011;30431;48.520;9.046;2023-02-15T07:30:12;33.67;;;21.23;;
44704;SDS011;30431;48.520;9.046;2023-02-15T07:32:43;35.10;;;21.90;;
44704;SDS011;30431;48.520;9.046;2023-02-15T07:35:31;33.92;;;20.95;;
44704;SDS011;30431;48.520;9.046;2023-02-15T07:38:00;30.50;;;19.42;;
44704;SDS011;30431;48.520;9.046;2023-02-15T07:40:30;35.78;;;21.60;;
44704;SDS011;30431;48.520;9.046;2023-02-15T07:42:57;34.65;;;21.27;;
44704;SDS011;30431;48.520;9.046;2023-02-15T07:45:25;44.05;;;25.75;;
44704;SDS011;30431;48.520;9.046;2023-02-15T07:47:53;39.95;;;23.25;;
44704;SDS011;30431;48.520;9.046;2023-02-15T07:50:23;34.55;;;20.13;;
44704;SDS011;30431;48.520;9.046;2023-02-15T07:52:52;46.75;;;27.00;;
44704;SDS011;30431;48.520;9.046;2023-02-15T07:55:19;51.15;;;27.70;;
44704;SDS011;30431;48.520;9.046;2023-02-15T07:57:49;51.15;;;28.17;;
44704;SDS011;30431;48.520;9.046;2023-02-15T08:00:18;50.88;;;26.30;;
44704;SDS011;30431;48.520;9.046;2023-02-15T08:02:52;76.30;;;32.45;;
44704;SDS011;30431;48.520;9.046;2023-02-15T08:05:47;69.80;;;30.42;;
44704;SDS011;30431;48.520;9.046;2023-02-15T08:08:16;43.28;;;24.38;;
44704;SDS011;30431;48.520;9.046;2023-02-15T08:14:06;39.47;;;21.52;;
44704;SDS011;30431;48.520;9.046;2023-02-15T08:21:55;25.63;;;18.40;;
44704;SDS011;30431;48.520;9.046;2023-02-15T08:24:36;27.05;;;17.33;;
44704;SDS011;30431;48.520;9.046;2023-02-15T08:27:06;28.27;;;18.35;;
44704;SDS011;30431;48.520;9.046;2023-02-15T08:29:35;30.30;;;18.27;;
44704;SDS011;30431;48.520;9.046;2023-02-15T08:32:05;29.48;;;17.63;;
44704;SDS011;30431;48.520;9.046;2023-02-15T08:34:36;26.55;;;16.92;;
44704;SDS011;30431;48.520;9.046;2023-02-15T08:37:06;27.90;;;16.83;;
44704;SDS011;30431;48.520;9.046;2023-02-15T08:39:35;26.00;;;15.32;;
44704;SDS011;30431;48.520;9.046;2023-02-15T08:42:02;21.55;;;14.02;;
44704;SDS011;30431;48.520;9.046;2023-02-15T08:46:56;21.88;;;14.35;;
44704;SDS011;30431;48.520;9.046;2023-02-15T08:49:29;21.90;;;14.43;;
44704;SDS011;30431;48.520;9.046;2023-02-15T08:54:23;23.48;;;13.88;;
44704;SDS011;30431;48.520;9.046;2023-02-15T08:56:50;19.67;;;12.27;;
44704;SDS011;30431;48.520;9.046;2023-02-15T08:59:18;23.95;;;13.75;;
44704;SDS011;30431;48.520;9.046;2023-02-15T09:01:50;19.63;;;13.55;;
44704;SDS011;30431;48.520;9.046;2023-02-15T09:04:20;24.17;;;13.80;;
44704;SDS011;30431;48.520;9.046;2023-02-15T09:06:50;21.00;;;13.23;;
44704;SDS011;30431;48.520;9.046;2023-02-15T09:09:19;23.98;;;13.38;;
44704;SDS011;30431;48.520;9.046;2023-02-15T09:11:47;21.00;;;13.27;;
44704;SDS011;30431;48.520;9.046;2023-02-15T09:14:24;20.75;;;13.23;;
44704;SDS011;30431;48.520;9.046;2023-02-15T09:16:54;21.20;;;14.13;;
44704;SDS011;30431;48.520;9.046;2023-02-15T09:19:24;25.27;;;13.88;;
44704;SDS011;30431;48.520;9.046;2023-02-15T09:21:51;21.38;;;13.95;;
44704;SDS011;30431;48.520;9.046;2023-02-15T09:24:19;24.85;;;14.50;;
44704;SDS011;30431;48.520;9.046;2023-02-15T09:26:46;18.23;;;13.02;;
44704;SDS011;30431;48.520;9.046;2023-02-15T09:29:19;21.85;;;13.45;;
44704;SDS011;30431;48.520;9.046;2023-02-15T09:31:50;20.15;;;13.73;;
44704;SDS011;30431;48.520;9.046;2023-02-15T09:34:20;22.98;;;12.85;;
44704;SDS011;30431;48.520;9.046;2023-02-15T09:36:48;21.83;;;12.73;;
44704;SDS011;30431;48.520;9.046;2023-02-15T09:39:20;21.55;;;13.02;;
44704;SDS011;30431;48.520;9.046;2023-02-15T09:42:16;23.85;;;13.30;;
44704;SDS011;30431;48.520;9.046;2023-02-15T09:45:11;25.33;;;14.60;;
44704;SDS011;30431;48.520;9.046;2023-02-15T09:54:09;23.95;;;14.00;;
44704;SDS011;30431;48.520;9.046;2023-02-15T09:56:58;27.40;;;13.38;;
44704;SDS011;30431;48.520;9.046;2023-02-15T10:05:14;22.85;;;14.70;;
44704;SDS011;30431;48.520;9.046;2023-02-15T10:10:45;24.75;;;12.60;;
44704;SDS011;30431;48.520;9.046;2023-02-15T10:19:06;23.27;;;12.48;;
44704;SDS011;30431;48.520;9.046;2023-02-15T10:27:50;29.83;;;12.02;;
44704;SDS011;30431;48.520;9.046;2023-02-15T10:32:59;25.25;;;11.80;;
44704;SDS011;30431;48.520;9.046;2023-02-15T10:36:16;20.85;;;10.93;;
44704;SDS011;30431;48.520;9.046;2023-02-15T11:00:31;10.68;;;5.55;;
44704;SDS011;30431;48.520;9.046;2023-02-15T11:03:16;13.13;;;6.32;;
44704;SDS011;30431;48.520;9.046;2023-02-15T11:06:02;11.43;;;6.55;;
44704;SDS011;30431;48.520;9.046;2023-02-15T11:08:43;13.23;;;6.70;;
44704;SDS011;30431;48.520;9.046;2023-02-15T11:11:19;11.13;;;6.82;;
44704;SDS011;30431;48.520;9.046;2023-02-15T11:13:57;13.93;;;7.07;;
44704;SDS011;30431;48.520;9.046;2023-02-15T11:19:21;12.05;;;7.35;;
44704;SDS011;30431;48.520;9.046;2023-02-15T11:21:59;22.95;;;8.50;;
44704;SDS011;30431;48.520;9.046;2023-02-15T11:24:29;13.63;;;7.90;;
44704;SDS011;30431;48.520;9.046;2023-02-15T11:27:04;16.73;;;7.90;;
44704;SDS011;30431;48.520;9.046;2023-02-15T11:32:45;16.08;;;8.52;;
44704;SDS011;30431;48.520;9.046;2023-02-15T11:37:49;16.30;;;7.88;;
44704;SDS011;30431;48.520;9.046;2023-02-15T11:40:20;16.60;;;8.52;;
44704;SDS011;30431;48.520;9.046;2023-02-15T11:45:45;18.23;;;8.45;;
44704;SDS011;30431;48.520;9.046;2023-02-15T11:48:13;12.73;;;7.15;;
44704;SDS011;30431;48.520;9.046;2023-02-15T11:50:41;12.93;;;7.57;;
44704;SDS011;30431;48.520;9.046;2023-02-15T11:55:48;14.48;;;7.68;;
44704;SDS011;30431;48.520;9.046;2023-02-15T12:00:52;17.92;;;9.40;;
44704;SDS011;30431;48.520;9.046;2023-02-15T12:03:54;21.70;;;7.47;;
44704;SDS011;30431;48.520;9.046;2023-02-15T12:06:37;11.85;;;7.80;;
44704;SDS011;30431;48.520;9.046;2023-02-15T12:12:28;32.45;;;17.98;;
44704;SDS011;30431;48.520;9.046;2023-02-15T12:15:01;18.23;;;9.82;;
44704;SDS011;30431;48.520;9.046;2023-02-15T12:17:34;12.40;;;7.32;;
44704;SDS011;30431;48.520;9.046;2023-02-15T12:20:20;18.08;;;7.75;;
44704;SDS011;30431;48.520;9.046;2023-02-15T12:31:07;14.75;;;6.78;;
44704;SDS011;30431;48.520;9.046;2023-02-15T12:33:56;18.58;;;7.28;;
44704;SDS011;30431;48.520;9.046;2023-02-15T12:36:29;11.93;;;6.90;;
44704;SDS011;30431;48.520;9.046;2023-02-15T12:44:31;11.27;;;7.05;;
44704;SDS011;30431;48.520;9.046;2023-02-15T12:47:01;15.40;;;7.00;;
44704;SDS011;30431;48.520;9.046;2023-02-15T12:49:29;17.15;;;6.78;;
44704;SDS011;30431;48.520;9.046;2023-02-15T12:52:01;16.98;;;6.82;;
44704;SDS011;30431;48.520;9.046;2023-02-15T12:57:24;13.90;;;6.38;;
44704;SDS011;30431;48.520;9.046;2023-02-15T13:00:04;9.82;;;6.25;;
44704;SDS011;30431;48.520;9.046;2023-02-15T13:02:51;10.57;;;5.70;;
44704;SDS011;30431;48.520;9.046;2023-02-15T13:05:29;9.15;;;5.72;;
44704;SDS011;30431;48.520;9.046;2023-02-15T13:08:12;10.43;;;5.00;;
44704;SDS011;30431;48.520;9.046;2023-02-15T13:10:52;13.13;;;5.78;;
44704;SDS011;30431;48.520;9.046;2023-02-15T13:16:32;10.02;;;6.03;;
44704;SDS011;30431;48.520;9.046;2023-02-15T13:19:47;12.43;;;6.95;;
44704;SDS011;30431;48.520;9.046;2023-02-15T13:21:54;14.73;;;6.40;;
44704;SDS011;30431;48.520;9.046;2023-02-15T13:27:03;18.90;;;6.60;;
44704;SDS011;30431;48.520;9.046;2023-02-15T13:29:42;17.58;;;7.30;;
44704;SDS011;30431;48.520;9.046;2023-02-15T13:35:00;15.05;;;5.95;;
44704;SDS011;30431;48.520;9.046;2023-02-15T13:54:18;10.55;;;5.40;;
44704;SDS011;30431;48.520;9.046;2023-02-15T14:05:29;14.38;;;7.25;;
44704;SDS011;30431;48.520;9.046;2023-02-15T14:22:35;14.48;;;8.30;;
44704;SDS011;30431;48.520;9.046;2023-02-15T14:28:27;13.10;;;7.50;;
44704;SDS011;30431;48.520;9.046;2023-02-15T14:31:00;19.90;;;8.43;;
44704;SDS011;30431;48.520;9.046;2023-02-15T14:33:33;18.42;;;8.13;;
44704;SDS011;30431;48.520;9.046;2023-02-15T14:36:11;13.52;;;8.15;;
44704;SDS011;30431;48.520;9.046;2023-02-15T14:41:53;12.90;;;7.35;;
44704;SDS011;30431;48.520;9.046;2023-02-15T14:44:38;11.55;;;7.63;;
44704;SDS011;30431;48.520;9.046;2023-02-15T14:47:10;17.08;;;7.45;;
44704;SDS011;30431;48.520;9.046;2023-02-15T14:49:51;13.48;;;7.70;;
44704;SDS011;30431;48.520;9.046;2023-02-15T14:52:18;11.98;;;6.55;;
44704;SDS011;30431;48.520;9.046;2023-02-15T15:02:12;12.10;;;8.00;;
44704;SDS011;30431;48.520;9.046;2023-02-15T15:07:44;12.75;;;7.72;;
44704;SDS011;30431;48.520;9.046;2023-02-15T15:25:48;12.02;;;7.20;;
44704;SDS011;30431;48.520;9.046;2023-02-15T15:28:52;14.38;;;8.60;;
44704;SDS011;30431;48.520;9.046;2023-02-15T15:34:23;10.85;;;7.70;;
44704;SDS011;30431;48.520;9.046;2023-02-15T15:45:47;12.55;;;7.00;;
44704;SDS011;30431;48.520;9.046;2023-02-15T15:51:00;14.00;;;5.70;;
44704;SDS011;30431;48.520;9.046;2023-02-15T15:53:34;12.85;;;6.28;;
44704;SDS011;30431;48.520;9.046;2023-02-15T15:56:11;14.52;;;5.88;;
44704;SDS011;30431;48.520;9.046;2023-02-15T15:58:47;10.80;;;5.80;;
44704;SDS011;30431;48.520;9.046;2023-02-15T16:01:24;11.27;;;6.03;;
44704;SDS011;30431;48.520;9.046;2023-02-15T16:03:57;11.43;;;6.10;;
44704;SDS011;30431;48.520;9.046;2023-02-15T16:06:34;14.98;;;9.35;;
44704;SDS011;30431;48.520;9.046;2023-02-15T16:11:56;12.63;;;6.10;;
44704;SDS011;30431;48.520;9.046;2023-02-15T16:14:32;9.48;;;6.18;;
44704;SDS011;30431;48.520;9.046;2023-02-15T16:17:04;16.98;;;6.10;;
44704;SDS011;30431;48.520;9.046;2023-02-15T16:19:43;12.52;;;6.35;;
44704;SDS011;30431;48.520;9.046;2023-02-15T16:22:11;12.43;;;5.95;;
44704;SDS011;30431;48.520;9.046;2023-02-15T16:24:46;18.40;;;6.65;;
44704;SDS011;30431;48.520;9.046;2023-02-15T16:35:56;22.98;;;6.45;;
44704;SDS011;30431;48.520;9.046;2023-02-15T16:41:13;24.33;;;6.30;;
44704;SDS011;30431;48.520;9.046;2023-02-15T16:43:50;23.52;;;6.88;;
44704;SDS011;30431;48.520;9.046;2023-02-15T16:48:48;28.40;;;7.55;;
44704;SDS011;30431;48.520;9.046;2023-02-15T16:51:21;44.63;;;8.57;;
44704;SDS011;30431;48.520;9.046;2023-02-15T16:53:54;35.95;;;8.68;;
44704;SDS011;30431;48.520;9.046;2023-02-15T16:56:27;25.05;;;7.07;;
44704;SDS011;30431;48.520;9.046;2023-02-15T16:59:01;68.57;;;17.30;;
44704;SDS011;30431;48.520;9.046;2023-02-15T17:01:32;31.38;;;7.97;;
44704;SDS011;30431;48.520;9.046;2023-02-15T17:04:11;18.42;;;7.82;;
44704;SDS011;30431;48.520;9.046;2023-02-15T17:06:39;17.33;;;6.90;;
44704;SDS011;30431;48.520;9.046;2023-02-15T17:09:15;16.45;;;6.20;;
44704;SDS011;30431;48.520;9.046;2023-02-15T17:11:48;16.23;;;7.35;;
44704;SDS011;30431;48.520;9.046;2023-02-15T17:14:19;13.98;;;7.30;;
44704;SDS011;30431;48.520;9.046;2023-02-15T17:16:53;20.85;;;8.13;;
44704;SDS011;30431;48.520;9.046;2023-02-15T17:22:05;28.38;;;7.88;;
44704;SDS011;30431;48.520;9.046;2023-02-15T17:24:34;24.52;;;8.20;;
44704;SDS011;30431;48.520;9.046;2023-02-15T17:27:03;32.78;;;10.52;;
44704;SDS011;30431;48.520;9.046;2023-02-15T17:29:38;48.10;;;11.52;;
44704;SDS011;30431;48.520;9.046;2023-02-15T17:32:28;34.25;;;10.07;;
44704;SDS011;30431;48.520;9.046;2023-02-15T17:35:04;20.73;;;8.93;;
44704;SDS011;30431;48.520;9.046;2023-02-15T17:40:24;33.35;;;10.80;;
44704;SDS011;30431;48.520;9.046;2023-02-15T17:42:51;24.45;;;9.95;;
44704;SDS011;30431;48.520;9.046;2023-02-15T17:45:19;23.60;;;10.50;;
44704;SDS011;30431;48.520;9.046;2023-02-15T17:47:51;19.20;;;8.52;;
44704;SDS011;30431;48.520;9.046;2023-02-15T17:50:22;17.60;;;8.50;;
44704;SDS011;30431;48.520;9.046;2023-02-15T17:52:52;24.38;;;8.02;;
44704;SDS011;30431;48.520;9.046;2023-02-15T17:55:24;28.00;;;9.13;;
44704;SDS011;30431;48.520;9.046;2023-02-15T17:58:02;12.13;;;6.78;;
44704;SDS011;30431;48.520;9.046;2023-02-15T18:00:32;22.92;;;7.28;;
44704;SDS011;30431;48.520;9.046;2023-02-15T18:03:23;14.32;;;7.47;;
44704;SDS011;30431;48.520;9.046;2023-02-15T18:06:15;15.07;;;7.22;;
44704;SDS011;30431;48.520;9.046;2023-02-15T18:09:00;14.00;;;7.07;;
44704;SDS011;30431;48.520;9.046;2023-02-15T18:11:48;16.30;;;8.55;;
44704;SDS011;30431;48.520;9.046;2023-02-15T18:16:47;16.48;;;9.82;;
44704;SDS011;30431;48.520;9.046;2023-02-15T18:19:20;20.70;;;8.80;;
44704;SDS011;30431;48.520;9.046;2023-02-15T18:21:51;18.80;;;8.70;;
44704;SDS011;30431;48.520;9.046;2023-02-15T18:24:21;13.68;;;7.03;;
44704;SDS011;30431;48.520;9.046;2023-02-15T18:26:53;13.60;;;6.75;;
44704;SDS011;30431;48.520;9.046;2023-02-15T18:29:21;12.63;;;6.20;;
44704;SDS011;30431;48.520;9.046;2023-02-15T18:31:50;12.82;;;6.25;;
44704;SDS011;30431;48.520;9.046;2023-02-15T18:34:28;13.13;;;6.70;;
44704;SDS011;30431;48.520;9.046;2023-02-15T18:37:00;16.45;;;6.15;;
44704;SDS011;30431;48.520;9.046;2023-02-15T18:39:44;10.98;;;6.70;;
44704;SDS011;30431;48.520;9.046;2023-02-15T18:42:30;18.80;;;7.85;;
44704;SDS011;30431;48.520;9.046;2023-02-15T18:45:06;17.52;;;10.68;;
44704;SDS011;30431;48.520;9.046;2023-02-15T18:47:50;14.93;;;8.90;;
44704;SDS011;30431;48.520;9.046;2023-02-15T18:50:18;26.40;;;12.63;;
44704;SDS011;30431;48.520;9.046;2023-02-15T18:52:49;27.63;;;15.68;;
44704;SDS011;30431;48.520;9.046;2023-02-15T18:55:26;25.35;;;13.90;;
44704;SDS011;30431;48.520;9.046;2023-02-15T18:57:56;24.17;;;11.48;;
44704;SDS011;30431;48.520;9.046;2023-02-15T19:00:28;23.25;;;12.75;;
44704;SDS011;30431;48.520;9.046;2023-02-15T19:03:03;27.08;;;12.88;;
44704;SDS011;30431;48.520;9.046;2023-02-15T19:05:30;24.52;;;11.52;;
44704;SDS011;30431;48.520;9.046;2023-02-15T19:08:00;24.33;;;11.45;;
44704;SDS011;30431;48.520;9.046;2023-02-15T19:10:29;24.48;;;11.32;;
44704;SDS011;30431;48.520;9.046;2023-02-15T19:12:58;19.33;;;11.38;;
44704;SDS011;30431;48.520;9.046;2023-02-15T19:15:27;27.98;;;12.68;;
44704;SDS011;30431;48.520;9.046;2023-02-15T19:17:55;23.77;;;12.23;;
44704;SDS011;30431;48.520;9.046;2023-02-15T19:20:45;42.10;;;18.65;;
44704;SDS011;30431;48.520;9.046;2023-02-15T19:23:21;29.40;;;15.48;;
44704;SDS011;30431;48.520;9.046;2023-02-15T19:25:51;32.80;;;15.75;;
44704;SDS011;30431;48.520;9.046;2023-02-15T19:28:20;20.80;;;11.57;;
44704;SDS011;30431;48.520;9.046;2023-02-15T19:30:55;29.50;;;11.70;;
44704;SDS011;30431;48.520;9.046;2023-02-15T19:33:22;22.38;;;12.93;;
44704;SDS011;30431;48.520;9.046;2023-02-15T19:35:52;45.38;;;20.58;;
44704;SDS011;30431;48.520;9.046;2023-02-15T19:38:43;60.08;;;27.63;;
44704;SDS011;30431;48.520;9.046;2023-02-15T19:41:16;66.88;;;28.23;;
44704;SDS011;30431;48.520;9.046;2023-02-15T19:43:49;64.97;;;27.20;;
44704;SDS011;30431;48.520;9.046;2023-02-15T19:46:18;51.78;;;22.17;;
44704;SDS011;30431;48.520;9.046;2023-02-15T19:48:47;47.25;;;20.15;;
44704;SDS011;30431;48.520;9.046;2023-02-15T19:51:19;39.97;;;19.42;;
44704;SDS011;30431;48.520;9.046;2023-02-15T19:53:54;32.30;;;16.40;;
44704;SDS011;30431;48.520;9.046;2023-02-15T19:56:23;34.83;;;16.83;;
44704;SDS011;30431;48.520;9.046;2023-02-15T19:58:50;34.88;;;19.00;;
44704;SDS011;30431;48.520;9.046;2023-02-15T20:01:18;39.65;;;17.73;;
44704;SDS011;30431;48.520;9.046;2023-02-15T20:03:45;51.03;;;21.90;;
44704;SDS011;30431;48.520;9.046;2023-02-15T20:06:19;47.13;;;21.17;;
44704;SDS011;30431;48.520;9.046;2023-02-15T20:08:48;31.08;;;14.48;;